createdAt,value
2023-10-22T00:02:13.814Z,8.30
2023-10-22T00:04:44.742Z,8.30
2023-10-22T00:07:16.162Z,8.30
2023-10-22T00:09:46.656Z,8.32
2023-10-22T00:12:15.075Z,8.31
2023-10-22T00:14:43.506Z,8.30
2023-10-22T00:17:11.820Z,8.31
2023-10-22T00:19:40.477Z,8.31
2023-10-22T00:22:10.292Z,8.32
2023-10-22T00:24:42.482Z,8.32
2023-10-22T00:27:13.408Z,8.31
2023-10-22T00:29:45.582Z,8.30
2023-10-22T00:32:16.013Z,8.32
2023-10-22T00:34:45.295Z,8.32
2023-10-22T00:37:12.904Z,8.42
2023-10-22T00:39:42.528Z,8.46
2023-10-22T00:42:13.254Z,8.46
2023-10-22T00:44:41.274Z,8.37
2023-10-22T00:47:18.280Z,8.50
2023-10-22T00:49:48.959Z,8.52
2023-10-22T00:52:20.248Z,8.49
2023-10-22T00:54:54.354Z,8.51
2023-10-22T00:57:26.693Z,8.51
2023-10-22T00:59:57.817Z,8.48
2023-10-22T01:02:28.140Z,8.46
2023-10-22T01:04:59.006Z,8.47
2023-10-22T01:07:31.610Z,8.47
2023-10-22T01:10:02.053Z,8.53
2023-10-22T01:12:37.110Z,8.59
2023-10-22T01:15:08.674Z,8.53
2023-10-22T01:17:39.287Z,8.47
2023-10-22T01:20:13.362Z,8.44
2023-10-22T01:22:43.970Z,8.44
2023-10-22T01:25:14.465Z,8.45
2023-10-22T01:27:45.936Z,8.41
2023-10-22T01:30:16.177Z,8.43
2023-10-22T01:32:46.779Z,8.45
2023-10-22T01:35:17.382Z,8.43
2023-10-22T01:37:47.840Z,8.42
2023-10-22T01:40:18.914Z,8.43
2023-10-22T01:42:50.203Z,8.43
2023-10-22T01:45:26.768Z,8.43
2023-10-22T01:47:57.596Z,8.43
2023-10-22T01:50:28.247Z,8.44
2023-10-22T01:52:58.689Z,8.50
2023-10-22T01:55:29.279Z,8.53
2023-10-22T01:57:59.901Z,8.50
2023-10-22T02:00:31.828Z,8.47
2023-10-22T02:03:02.460Z,8.46
2023-10-22T02:05:36.774Z,8.47
2023-10-22T02:08:06.227Z,8.48
2023-10-22T02:10:36.360Z,8.47
2023-10-22T02:13:04.670Z,8.46
2023-10-22T02:15:32.989Z,8.45
2023-10-22T02:18:01.246Z,8.44
2023-10-22T02:20:29.734Z,8.45
2023-10-22T02:23:00.525Z,8.50
2023-10-22T02:25:31.027Z,8.49
2023-10-22T02:28:01.727Z,8.48
2023-10-22T02:30:32.143Z,8.48
2023-10-22T02:33:02.673Z,8.50
2023-10-22T02:35:33.136Z,8.47
2023-10-22T02:38:03.447Z,8.48
2023-10-22T02:40:39.262Z,8.49
2023-10-22T02:43:09.705Z,8.51
2023-10-22T02:45:49.961Z,8.52
2023-10-22T02:48:19.086Z,8.55
2023-10-22T02:50:48.370Z,8.57
2023-10-22T02:53:16.123Z,8.58
2023-10-22T02:55:44.570Z,8.58
2023-10-22T02:58:12.465Z,8.58
2023-10-22T03:00:41.320Z,8.61
2023-10-22T03:03:09.512Z,8.63
2023-10-22T03:05:38.092Z,8.66
2023-10-22T03:08:06.301Z,8.69
2023-10-22T03:10:38.495Z,8.69
2023-10-22T03:13:06.255Z,8.70
2023-10-22T03:15:34.376Z,8.70
2023-10-22T03:18:03.099Z,8.74
2023-10-22T03:20:34.771Z,8.77
2023-10-22T03:23:07.317Z,8.79
2023-10-22T03:25:38.813Z,8.81
2023-10-22T03:28:09.637Z,8.83
2023-10-22T03:30:40.821Z,8.83
2023-10-22T03:33:12.209Z,8.83
2023-10-22T03:35:42.444Z,8.83
2023-10-22T03:38:12.592Z,8.84
2023-10-22T03:40:42.757Z,8.94
2023-10-22T03:43:13.113Z,8.93
2023-10-22T03:45:43.366Z,8.91
2023-10-22T03:48:13.610Z,8.88
2023-10-22T03:50:46.940Z,8.88
2023-10-22T03:53:17.754Z,8.86
2023-10-22T03:55:47.906Z,8.86
2023-10-22T03:58:18.626Z,8.86
2023-10-22T04:00:50.390Z,8.86
2023-10-22T04:03:20.729Z,8.85
2023-10-22T04:06:00.550Z,8.85
2023-10-22T04:08:30.943Z,8.86
2023-10-22T04:11:02.842Z,8.87
2023-10-22T04:13:33.108Z,8.90
2023-10-22T04:16:04.201Z,8.86
2023-10-22T04:18:34.468Z,8.92
2023-10-22T04:21:16.327Z,8.89
2023-10-22T04:23:47.672Z,8.89
2023-10-22T04:26:17.981Z,8.88
2023-10-22T04:28:49.211Z,8.88
2023-10-22T04:31:19.392Z,8.87
2023-10-22T04:33:49.716Z,8.87
2023-10-22T04:36:23.110Z,8.87
2023-10-22T04:38:53.356Z,8.87
2023-10-22T04:41:21.780Z,8.88
2023-10-22T04:43:50.149Z,8.90
2023-10-22T04:46:18.527Z,8.89
2023-10-22T04:48:47.007Z,8.88
2023-10-22T04:51:15.496Z,8.90
2023-10-22T04:53:43.992Z,8.89
2023-10-22T04:56:12.183Z,8.88
2023-10-22T04:58:40.639Z,8.87
2023-10-22T05:01:12.676Z,8.88
2023-10-22T05:03:40.804Z,8.88
2023-10-22T05:06:11.008Z,8.87
2023-10-22T05:08:42.021Z,8.88
2023-10-22T05:11:17.829Z,8.90
2023-10-22T05:13:47.856Z,8.88
2023-10-22T05:16:17.705Z,8.88
2023-10-22T05:18:47.777Z,8.88
2023-10-22T05:21:17.905Z,8.87
2023-10-22T05:23:46.788Z,8.87
2023-10-22T05:26:15.101Z,8.84
2023-10-22T05:28:42.715Z,8.82
2023-10-22T05:31:20.522Z,8.81
2023-10-22T05:33:48.470Z,8.78
2023-10-22T05:36:21.939Z,8.75
2023-10-22T05:38:51.102Z,8.75
2023-10-22T05:41:27.171Z,8.73
2023-10-22T05:44:02.999Z,8.71
2023-10-22T05:46:35.338Z,8.71
2023-10-22T05:49:05.832Z,8.67
2023-10-22T05:51:35.756Z,8.67
2023-10-22T05:54:06.406Z,8.66
2023-10-22T05:56:36.679Z,8.65
2023-10-22T05:59:09.976Z,8.65
2023-10-22T06:01:42.677Z,8.65
2023-10-22T06:04:11.085Z,8.64
2023-10-22T06:06:40.943Z,8.64
2023-10-22T06:09:13.538Z,8.64
2023-10-22T06:11:44.013Z,8.64
2023-10-22T06:14:15.821Z,8.65
2023-10-22T06:16:47.102Z,8.69
2023-10-22T06:19:16.995Z,8.69
2023-10-22T06:21:48.190Z,8.70
2023-10-22T06:24:18.643Z,8.72
2023-10-22T06:26:48.905Z,8.74
2023-10-22T06:29:19.015Z,8.75
2023-10-22T06:31:49.178Z,8.76
2023-10-22T06:34:19.251Z,8.75
2023-10-22T06:36:49.273Z,8.77
2023-10-22T06:39:19.190Z,8.77
2023-10-22T06:41:48.960Z,8.75
2023-10-22T06:44:18.970Z,8.74
2023-10-22T06:46:48.899Z,8.73
2023-10-22T06:49:18.918Z,8.71
2023-10-22T06:51:48.726Z,8.69
2023-10-22T06:54:18.683Z,8.68
2023-10-22T06:56:48.724Z,8.68
2023-10-22T06:59:18.726Z,8.67
2023-10-22T07:01:48.596Z,8.65
2023-10-22T07:04:21.629Z,8.65
2023-10-22T07:06:52.064Z,8.67
2023-10-22T07:09:22.151Z,8.67
2023-10-22T07:11:52.349Z,8.67
2023-10-22T07:14:22.469Z,8.69
2023-10-22T07:16:52.633Z,8.71
2023-10-22T07:19:22.450Z,8.76
2023-10-22T07:21:52.560Z,8.80
2023-10-22T07:24:23.388Z,8.81
2023-10-22T07:26:52.503Z,8.86
2023-10-22T07:29:22.207Z,8.90
2023-10-22T07:31:53.323Z,8.94
2023-10-22T07:34:23.774Z,9.01
2023-10-22T07:36:53.666Z,9.06
2023-10-22T07:39:24.222Z,9.14
2023-10-22T07:41:52.499Z,9.23
2023-10-22T07:44:20.972Z,9.33
2023-10-22T07:46:49.331Z,9.41
2023-10-22T07:49:17.679Z,9.49
2023-10-22T07:51:46.734Z,9.58
2023-10-22T07:54:14.693Z,9.69
2023-10-22T07:56:42.820Z,9.79
2023-10-22T07:59:11.203Z,9.88
2023-10-22T08:01:39.926Z,9.97
2023-10-22T08:04:08.831Z,10.05
2023-10-22T08:06:37.220Z,10.12
2023-10-22T08:09:08.598Z,10.25
2023-10-22T08:11:39.283Z,10.32
2023-10-22T08:14:10.074Z,10.38
2023-10-22T08:16:40.569Z,10.50
2023-10-22T08:19:11.862Z,10.60
2023-10-22T08:21:42.639Z,10.64
2023-10-22T08:24:13.560Z,10.73
2023-10-22T08:26:44.402Z,10.76
2023-10-22T08:29:14.992Z,10.80
2023-10-22T08:31:43.493Z,10.80
2023-10-22T08:34:11.985Z,10.92
2023-10-22T08:36:42.088Z,11.03
2023-10-22T08:39:12.355Z,11.09
2023-10-22T08:42:02.144Z,11.11
2023-10-22T08:44:38.112Z,11.09
2023-10-22T08:47:09.449Z,11.16
2023-10-22T08:49:43.470Z,11.23
2023-10-22T08:52:13.751Z,11.34
2023-10-22T08:54:47.890Z,11.33
2023-10-22T08:57:22.071Z,11.26
2023-10-22T08:59:53.967Z,11.21
2023-10-22T09:02:29.751Z,11.25
2023-10-22T09:05:00.157Z,11.34
2023-10-22T09:07:53.629Z,11.39
2023-10-22T09:10:31.864Z,11.36
2023-10-22T09:13:08.629Z,11.31
2023-10-22T09:15:49.925Z,11.24
2023-10-22T09:18:20.853Z,11.29
2023-10-22T09:20:51.744Z,11.40
2023-10-22T09:23:24.884Z,11.40
2023-10-22T09:25:58.969Z,11.43
2023-10-22T09:28:31.771Z,11.45
2023-10-22T09:31:08.437Z,11.46
2023-10-22T09:33:43.034Z,11.49
2023-10-22T09:36:14.807Z,11.51
2023-10-22T09:38:52.131Z,11.51
2023-10-22T09:41:30.750Z,11.37
2023-10-22T09:44:04.353Z,11.38
2023-10-22T09:46:35.886Z,11.37
2023-10-22T09:49:08.418Z,11.44
2023-10-22T09:51:40.359Z,11.36
2023-10-22T09:54:11.268Z,11.36
2023-10-22T09:57:15.630Z,11.38
2023-10-22T09:59:46.960Z,11.47
2023-10-22T10:02:23.460Z,11.49
2023-10-22T10:04:57.982Z,11.49
2023-10-22T10:07:28.717Z,11.52
2023-10-22T10:09:57.261Z,11.55
2023-10-22T10:12:29.791Z,11.66
2023-10-22T10:14:59.236Z,11.70
2023-10-22T10:17:30.778Z,11.76
2023-10-22T10:20:29.335Z,11.85
2023-10-22T10:23:15.511Z,11.86
2023-10-22T10:25:44.436Z,11.92
2023-10-22T10:28:15.283Z,11.95
2023-10-22T10:30:45.638Z,12.05
2023-10-22T10:33:17.459Z,12.08
2023-10-22T10:35:51.030Z,12.02
2023-10-22T10:38:23.533Z,12.06
2023-10-22T10:40:57.432Z,12.10
2023-10-22T10:44:10.187Z,12.26
2023-10-22T10:46:40.528Z,12.37
2023-10-22T10:49:10.801Z,12.49
2023-10-22T10:52:01.377Z,12.62
2023-10-22T10:54:31.498Z,12.75
2023-10-22T10:57:01.872Z,12.88
2023-10-22T10:59:37.752Z,13.03
2023-10-22T11:02:16.032Z,13.09
2023-10-22T11:04:48.054Z,13.11
2023-10-22T11:07:26.934Z,13.12
2023-10-22T11:09:57.865Z,13.14
2023-10-22T11:12:27.470Z,13.16
2023-10-22T11:14:57.875Z,13.28
2023-10-22T11:17:26.764Z,13.41
2023-10-22T11:19:54.226Z,13.53
2023-10-22T11:22:22.706Z,13.69
2023-10-22T11:24:54.055Z,13.75
2023-10-22T11:27:25.861Z,13.83
2023-10-22T11:29:57.267Z,13.89
2023-10-22T11:32:28.015Z,13.92
2023-10-22T11:34:58.247Z,13.86
2023-10-22T11:37:44.587Z,13.89
2023-10-22T11:40:32.239Z,13.96
2023-10-22T11:43:18.008Z,13.93
2023-10-22T11:45:58.414Z,13.95
2023-10-22T11:48:29.180Z,14.07
2023-10-22T11:51:05.182Z,14.07
2023-10-22T11:53:43.887Z,14.15
2023-10-22T11:56:14.240Z,14.22
2023-10-22T11:58:56.656Z,14.35
2023-10-22T12:01:25.343Z,14.61
2023-10-22T12:03:53.818Z,14.65
2023-10-22T12:06:22.094Z,14.74
2023-10-22T12:08:50.522Z,14.75
2023-10-22T12:11:19.042Z,14.81
2023-10-22T12:13:47.581Z,14.82
2023-10-22T12:16:16.740Z,14.74
2023-10-22T12:18:44.216Z,14.60
2023-10-22T12:21:12.650Z,14.49
2023-10-22T12:23:48.937Z,14.34
2023-10-22T12:26:20.040Z,14.19
2023-10-22T12:28:50.070Z,14.28
2023-10-22T12:31:19.962Z,14.35
2023-10-22T12:33:49.920Z,14.52
2023-10-22T12:36:20.011Z,14.66
2023-10-22T12:38:49.923Z,14.77
2023-10-22T12:41:19.805Z,14.75
2023-10-22T12:43:49.708Z,14.69
2023-10-22T12:46:19.765Z,14.70
2023-10-22T12:48:48.063Z,14.66
2023-10-22T12:51:16.535Z,14.52
2023-10-22T12:53:45.370Z,14.49
2023-10-22T12:56:14.707Z,14.52
2023-10-22T12:58:45.743Z,14.57
2023-10-22T13:01:13.587Z,14.61
2023-10-22T13:03:41.553Z,14.62
2023-10-22T13:06:09.979Z,14.63
2023-10-22T13:08:38.325Z,14.49
2023-10-22T13:11:06.665Z,14.41
2023-10-22T13:13:35.059Z,14.31
2023-10-22T13:16:04.103Z,14.19
2023-10-22T13:18:31.977Z,14.11
2023-10-22T13:21:00.833Z,14.00
2023-10-22T13:23:28.841Z,13.94
2023-10-22T13:25:57.410Z,13.92
2023-10-22T13:28:25.776Z,13.84
2023-10-22T13:30:54.266Z,13.88
2023-10-22T13:33:22.667Z,13.92
2023-10-22T13:35:50.994Z,13.94
2023-10-22T13:38:19.393Z,13.93
2023-10-22T13:40:47.751Z,13.85
2023-10-22T13:43:16.221Z,13.83
2023-10-22T13:45:44.636Z,13.85
2023-10-22T13:48:13.253Z,13.82
2023-10-22T13:50:41.418Z,13.84
2023-10-22T13:53:10.503Z,13.84
2023-10-22T13:55:38.324Z,13.81
2023-10-22T13:58:06.640Z,13.89
2023-10-22T14:00:39.801Z,13.87
2023-10-22T14:03:09.911Z,13.83
2023-10-22T14:05:40.434Z,13.83
2023-10-22T14:08:10.500Z,13.85
2023-10-22T14:10:43.775Z,13.78
2023-10-22T14:13:15.607Z,13.71
2023-10-22T14:15:46.400Z,13.66
2023-10-22T14:18:17.013Z,13.55
2023-10-22T14:20:47.284Z,13.48
2023-10-22T14:23:15.659Z,13.37
2023-10-22T14:25:44.082Z,13.39
2023-10-22T14:28:14.751Z,13.43
2023-10-22T14:30:48.995Z,13.38
2023-10-22T14:33:19.241Z,13.30
2023-10-22T14:35:49.727Z,13.26
2023-10-22T14:38:19.916Z,13.27
2023-10-22T14:40:50.083Z,13.17
2023-10-22T14:43:20.251Z,13.08
2023-10-22T14:45:50.522Z,13.06
2023-10-22T14:48:20.754Z,13.08
2023-10-22T14:50:57.066Z,13.07
2023-10-22T14:53:26.535Z,12.99
2023-10-22T14:56:02.172Z,12.88
2023-10-22T14:58:31.857Z,12.76
2023-10-22T15:01:07.129Z,12.65
2023-10-22T15:03:36.588Z,12.58
2023-10-22T15:06:07.275Z,12.49
2023-10-22T15:08:37.489Z,12.46
2023-10-22T15:11:09.151Z,12.39
2023-10-22T15:13:37.363Z,12.27
2023-10-22T15:16:12.897Z,12.14
2023-10-22T15:18:43.076Z,11.97
2023-10-22T15:21:13.527Z,11.83
2023-10-22T15:23:43.699Z,11.70
2023-10-22T15:26:13.600Z,11.58
2023-10-22T15:28:43.477Z,11.45
2023-10-22T15:31:13.392Z,11.33
2023-10-22T15:33:43.578Z,11.21
2023-10-22T15:36:13.507Z,11.11
2023-10-22T15:38:43.589Z,11.02
2023-10-22T15:41:13.461Z,10.95
2023-10-22T15:43:43.382Z,10.81
2023-10-22T15:46:23.761Z,10.71
2023-10-22T15:48:53.315Z,10.61
2023-10-22T15:51:22.314Z,10.50
2023-10-22T15:53:50.172Z,10.42
2023-10-22T15:56:18.492Z,10.30
2023-10-22T15:58:46.868Z,10.20
2023-10-22T16:01:20.996Z,10.09
2023-10-22T16:03:51.673Z,10.05
2023-10-22T16:06:21.324Z,9.98
2023-10-22T16:08:51.557Z,9.90
2023-10-22T16:11:21.383Z,9.81
2023-10-22T16:13:51.280Z,9.75
2023-10-22T16:16:21.221Z,9.65
2023-10-22T16:18:52.676Z,9.58
2023-10-22T16:21:22.996Z,9.52
2023-10-22T16:23:53.052Z,9.45
2023-10-22T16:26:21.779Z,9.37
2023-10-22T16:28:51.330Z,9.33
2023-10-22T16:31:21.340Z,9.25
2023-10-22T16:33:49.714Z,9.20
2023-10-22T16:36:18.109Z,9.14
2023-10-22T16:38:46.580Z,9.07
2023-10-22T16:41:15.023Z,9.00
2023-10-22T16:43:43.330Z,8.95
2023-10-22T16:46:11.884Z,8.90
2023-10-22T16:48:40.205Z,8.86
2023-10-22T16:51:08.738Z,8.81
2023-10-22T16:53:37.012Z,8.73
2023-10-22T16:56:06.012Z,8.68
2023-10-22T16:58:33.992Z,8.64
2023-10-22T17:01:09.826Z,8.59
2023-10-22T17:03:40.375Z,8.57
2023-10-22T17:06:12.236Z,8.55
2023-10-22T17:08:40.391Z,8.52
2023-10-22T17:11:10.384Z,8.55
2023-10-22T17:13:37.908Z,8.56
2023-10-22T17:16:08.687Z,8.55
2023-10-22T17:18:50.344Z,8.58
2023-10-22T17:21:24.646Z,8.62
2023-10-22T17:23:54.957Z,8.63
2023-10-22T17:26:25.660Z,8.62
2023-10-22T17:28:54.910Z,8.61
2023-10-22T17:31:27.112Z,8.59
2023-10-22T17:34:04.061Z,8.55
2023-10-22T17:36:38.154Z,8.59
2023-10-22T17:39:05.828Z,8.58
2023-10-22T17:41:35.819Z,8.59
2023-10-22T17:44:06.005Z,8.62
2023-10-22T17:46:38.250Z,8.67
2023-10-22T17:49:06.635Z,8.73
2023-10-22T17:51:36.657Z,8.79
2023-10-22T17:54:06.660Z,8.85
2023-10-22T17:56:37.626Z,8.83
2023-10-22T17:59:07.892Z,8.82
2023-10-22T18:01:37.879Z,8.81
2023-10-22T18:04:08.257Z,8.75
2023-10-22T18:06:38.303Z,8.74
2023-10-22T18:09:08.742Z,8.77
2023-10-22T18:11:39.569Z,8.85
2023-10-22T18:14:10.378Z,8.91
2023-10-22T18:16:40.717Z,8.96
2023-10-22T18:19:10.968Z,8.99
2023-10-22T18:21:41.431Z,9.04
2023-10-22T18:24:14.029Z,9.10
2023-10-22T18:26:44.993Z,9.13
2023-10-22T18:29:15.566Z,9.17
2023-10-22T18:31:45.744Z,9.22
2023-10-22T18:34:15.739Z,9.38
2023-10-22T18:36:45.640Z,9.47
2023-10-22T18:39:15.798Z,9.53
2023-10-22T18:41:46.937Z,9.67
2023-10-22T18:44:16.428Z,9.71
2023-10-22T18:46:45.942Z,9.72
2023-10-22T18:49:16.281Z,9.71
2023-10-22T18:51:47.413Z,9.75
2023-10-22T18:54:17.966Z,9.83
2023-10-22T18:56:47.413Z,9.96
2023-10-22T18:59:17.583Z,9.99
2023-10-22T19:01:47.399Z,10.04
2023-10-22T19:04:17.692Z,10.09
2023-10-22T19:06:47.956Z,10.09
2023-10-22T19:09:18.207Z,10.06
2023-10-22T19:11:48.465Z,10.01
2023-10-22T19:14:20.043Z,10.00
2023-10-22T19:16:50.338Z,9.99
2023-10-22T19:19:20.534Z,10.02
2023-10-22T19:21:53.358Z,9.96
2023-10-22T19:24:23.617Z,9.97
2023-10-22T19:26:51.950Z,9.96
2023-10-22T19:29:20.426Z,9.94
2023-10-22T19:31:48.869Z,9.92
2023-10-22T19:34:17.425Z,9.96
2023-10-22T19:36:45.834Z,9.91
2023-10-22T19:39:14.139Z,9.89
2023-10-22T19:41:42.432Z,9.87
2023-10-22T19:44:10.840Z,9.86
2023-10-22T19:46:39.344Z,9.82
2023-10-22T19:49:08.307Z,9.81
2023-10-22T19:51:36.309Z,9.79
2023-10-22T19:54:05.275Z,9.82
2023-10-22T19:56:33.043Z,9.78
2023-10-22T19:59:03.634Z,9.79
2023-10-22T20:01:33.940Z,9.81
2023-10-22T20:04:04.453Z,9.77
2023-10-22T20:06:34.786Z,9.78
2023-10-22T20:09:05.017Z,9.86
2023-10-22T20:11:35.235Z,9.88
2023-10-22T20:14:05.560Z,9.88
2023-10-22T20:16:35.802Z,9.89
2023-10-22T20:19:06.753Z,9.89
2023-10-22T20:21:37.009Z,9.94
2023-10-22T20:24:07.760Z,9.97
2023-10-22T20:26:40.731Z,9.97
2023-10-22T20:29:09.449Z,9.92
2023-10-22T20:31:37.786Z,9.88
2023-10-22T20:34:06.261Z,9.86
2023-10-22T20:36:34.710Z,9.80
2023-10-22T20:39:05.493Z,9.77
2023-10-22T20:41:35.698Z,9.73
2023-10-22T20:44:06.213Z,9.68
2023-10-22T20:46:36.563Z,9.65
2023-10-22T20:49:07.018Z,9.59
2023-10-22T20:51:38.988Z,9.60
2023-10-22T20:54:09.193Z,9.60
2023-10-22T20:56:39.365Z,9.55
2023-10-22T20:59:09.739Z,9.56
2023-10-22T21:01:40.032Z,9.51
2023-10-22T21:04:10.262Z,9.44
2023-10-22T21:06:40.520Z,9.40
2023-10-22T21:09:10.752Z,9.35
2023-10-22T21:11:40.977Z,9.31
2023-10-22T21:14:11.105Z,9.27
2023-10-22T21:16:41.406Z,9.23
2023-10-22T21:19:11.644Z,9.20
2023-10-22T21:21:47.143Z,9.19
2023-10-22T21:24:18.101Z,9.17
2023-10-22T21:26:48.312Z,9.16
2023-10-22T21:29:20.003Z,9.17
2023-10-22T21:31:50.188Z,9.21
2023-10-22T21:34:20.337Z,9.19
2023-10-22T21:36:50.474Z,9.18
2023-10-22T21:39:22.270Z,9.16
2023-10-22T21:41:51.735Z,9.16
2023-10-22T21:44:21.998Z,9.12
2023-10-22T21:46:52.133Z,9.07
2023-10-22T21:49:22.337Z,9.04
2023-10-22T21:51:51.826Z,9.03
2023-10-22T21:54:21.960Z,8.98
2023-10-22T21:56:52.076Z,8.94
2023-10-22T21:59:22.324Z,8.91
2023-10-22T22:01:52.449Z,8.88
2023-10-22T22:04:22.756Z,8.84
2023-10-22T22:06:52.803Z,8.77
2023-10-22T22:09:23.042Z,8.73
2023-10-22T22:11:53.225Z,8.70
2023-10-22T22:14:23.403Z,8.64
2023-10-22T22:16:55.994Z,8.60
2023-10-22T22:19:24.753Z,8.58
2023-10-22T22:21:54.942Z,8.56
2023-10-22T22:24:25.123Z,8.54
2023-10-22T22:26:55.299Z,8.56
2023-10-22T22:29:25.447Z,8.54
2023-10-22T22:31:53.953Z,8.52
2023-10-22T22:34:22.350Z,8.49
2023-10-22T22:36:50.794Z,8.49
2023-10-22T22:39:21.306Z,8.48
2023-10-22T22:41:50.529Z,8.50
2023-10-22T22:44:18.914Z,8.50
2023-10-22T22:46:47.346Z,8.49
2023-10-22T22:49:15.761Z,8.51
2023-10-22T22:51:44.828Z,8.51
2023-10-22T22:54:12.766Z,8.50
2023-10-22T22:56:41.725Z,8.43
2023-10-22T22:59:09.458Z,8.40
2023-10-22T23:01:40.466Z,8.34
2023-10-22T23:04:10.168Z,8.28
2023-10-22T23:06:40.110Z,8.23
2023-10-22T23:09:10.316Z,8.19
2023-10-22T23:11:40.466Z,8.16
2023-10-22T23:14:11.235Z,8.12
2023-10-22T23:16:40.965Z,8.10
2023-10-22T23:19:11.021Z,8.06
2023-10-22T23:21:41.183Z,8.05
2023-10-22T23:24:11.410Z,8.02
2023-10-22T23:26:41.609Z,7.97
2023-10-22T23:29:11.686Z,7.94
2023-10-22T23:31:40.608Z,7.92
2023-10-22T23:34:08.843Z,7.89
2023-10-22T23:36:36.964Z,7.86
2023-10-22T23:39:08.335Z,7.81
2023-10-22T23:41:36.801Z,7.77
2023-10-22T23:44:05.659Z,7.74
2023-10-22T23:46:33.835Z,7.70
2023-10-22T23:49:02.086Z,7.67
2023-10-22T23:51:30.543Z,7.66
2023-10-22T23:53:59.423Z,7.66
2023-10-22T23:56:27.404Z,7.60
2023-10-22T23:58:55.808Z,7.58
